Time;durP1;ratioP1;P1;durP2;ratioP2;P2;SDS_P1;SDS_P2;PMS_P1;PMS_P2;Temp;Humidity;BMP_temperature;BMP_pressure;BME280_temperature;BME280_humidity;BME280_pressure;Samples;Min_cycle;Max_cycle;Signal;HPM_P1;HPM_P2
2023/07/09 07:01:21;;;;;;;0.95;0.95;;;32.70;99.90;37.90;101706.00;;;;6196776;22;1393145;-72
2023/07/09 07:03:47;;;;;;;0.10;0.10;;;33.10;99.90;38.30;101666.00;;;;6248135;22;20180;-72
2023/07/09 07:06:16;;;;;;;1.05;1.05;;;33.40;99.90;38.80;101651.00;;;;6246943;23;20174;-72
2023/07/09 07:08:42;;;;;;;0.90;0.80;;;33.90;99.90;38.90;101693.00;;;;6221191;23;20168;-72
2023/07/09 07:11:08;;;;;;;2.50;2.13;;;34.20;99.90;37.90;101701.00;;;;6221261;23;20150;-71
2023/07/09 07:13:39;;;;;;;0.43;0.43;;;33.90;99.90;38.30;101699.00;;;;6247427;23;20156;-71
2023/07/09 07:16:17;;;;;;;0.10;0.10;;;33.80;99.90;37.90;101701.00;;;;6221168;23;20240;-71
2023/07/09 07:18:42;;;;;;;2.45;2.35;;;33.70;99.90;36.20;101721.00;;;;6246649;23;20146;-71
2023/07/09 07:21:08;;;;;;;0.45;0.45;;;33.10;99.90;36.70;101733.00;;;;6221345;23;20192;-71
2023/07/09 07:23:35;;;;;;;3.88;3.50;;;32.70;99.90;35.50;101753.00;;;;6247320;23;20161;-71
2023/07/09 07:26:03;;;;;;;0.68;0.68;;;32.20;99.90;36.00;101751.00;;;;6246386;23;20211;-71
2023/07/09 07:28:30;;;;;;;4.35;1.52;;;32.00;99.90;36.90;101751.00;;;;6246530;23;20138;-71
2023/07/09 07:31:05;;;;;;;0.52;0.52;;;32.40;99.90;36.70;101741.00;;;;6220846;23;20620;-71
2023/07/09 07:33:35;;;;;;;1.67;1.55;;;32.70;99.90;36.20;101755.00;;;;6246226;23;20256;-71
2023/07/09 07:36:05;;;;;;;0.77;0.77;;;32.50;99.90;36.50;101758.00;;;;6220584;23;20157;-71
2023/07/09 07:38:33;;;;;;;0.10;0.10;;;32.40;99.90;37.70;101740.00;;;;6247475;22;20213;-71
2023/07/09 07:41:01;;;;;;;1.67;1.05;;;32.90;99.90;37.20;101737.00;;;;6246085;23;20219;-71
2023/07/09 07:43:31;;;;;;;0.43;0.43;;;33.10;99.90;35.40;101765.00;;;;6246438;23;20169;-71
2023/07/09 07:45:57;;;;;;;0.93;0.93;;;32.40;99.90;36.60;101753.00;;;;6246266;23;20192;-71
2023/07/09 07:48:23;;;;;;;1.58;1.48;;;32.40;99.90;37.00;101744.00;;;;6246288;23;20150;-71
2023/07/09 07:50:49;;;;;;;0.10;0.10;;;32.80;99.90;37.00;101755.00;;;;6245816;23;20577;-71
2023/07/09 07:53:15;;;;;;;0.40;0.40;;;33.00;99.90;37.00;101754.00;;;;6247186;23;20162;-71
2023/07/09 07:55:42;;;;;;;1.98;0.95;;;33.30;99.90;36.80;101757.00;;;;6247077;23;20586;-71
2023/07/09 07:58:13;;;;;;;0.30;0.30;;;33.10;99.90;37.90;101744.00;;;;6247591;22;20158;-71
2023/07/09 08:09:16;;;;;;;1.02;1.02;;;34.40;99.90;37.30;101735.00;;;;6303251;22;20183;-71
2023/07/09 08:11:42;;;;;;;2.65;0.50;;;33.70;99.90;37.10;101738.00;;;;6308919;22;20153;-71
2023/07/09 08:14:08;;;;;;;2.17;0.93;;;33.30;99.90;37.40;101738.00;;;;6308650;22;20572;-71
2023/07/09 08:16:34;;;;;;;0.52;0.52;;;33.40;99.90;37.40;101737.00;;;;6255753;22;20156;-71
2023/07/09 08:19:00;;;;;;;5.15;0.60;;;33.70;99.90;37.10;101735.00;;;;6281862;22;20196;-71
2023/07/09 08:21:26;;;;;;;0.22;0.22;;;33.30;99.90;37.40;101737.00;;;;6308820;22;20214;-71
2023/07/09 08:23:52;;;;;;;1.63;1.30;;;33.50;99.90;35.60;101769.00;;;;6281612;22;20160;-71
2023/07/09 08:26:18;;;;;;;0.68;0.68;;;32.70;99.90;35.80;101770.00;;;;6281767;22;20144;-71
2023/07/09 08:28:44;;;;;;;0.60;0.52;;;32.40;99.90;35.60;101776.00;;;;6255904;22;20588;-71
2023/07/09 08:31:10;;;;;;;0.43;0.28;;;32.30;99.90;34.10;101780.00;;;;6256149;22;20156;-71
2023/07/09 08:33:41;;;;;;;1.35;1.25;;;31.70;99.90;33.60;101786.00;;;;6281522;22;20197;-71
2023/07/09 08:36:07;;;;;;;0.10;0.10;;;31.00;99.90;37.00;101752.00;;;;6281575;22;20148;-71
2023/07/09 08:38:33;;;;;;;0.38;0.38;;;32.20;99.90;38.20;101692.00;;;;6256015;22;20311;-71
2023/07/09 08:41:45;;;;;;;10.88;0.43;;;33.60;99.90;36.70;101742.00;;;;6255839;22;20153;-71
2023/07/09 08:44:50;;;;;;;0.15;0.15;;;33.50;99.90;37.10;101732.00;;;;6276257;22;20171;-71
2023/07/09 08:47:41;;;;;;;3.17;0.68;;;33.40;99.90;37.30;101714.00;;;;6235572;22;20167;-71
2023/07/09 08:50:21;;;;;;;1.05;0.80;;;33.70;99.90;38.30;101667.00;;;;6308266;22;20136;-71
2023/07/09 08:52:51;;;;;;;1.63;1.17;;;34.40;99.90;37.30;101673.00;;;;6280986;22;20571;-71
2023/07/09 08:55:21;;;;;;;0.63;0.63;;;33.90;99.90;34.60;101744.00;;;;6281847;22;20168;-71
2023/07/09 08:58:05;;;;;;;0.10;0.10;;;32.70;99.90;34.70;101754.00;;;;6280838;22;20580;-71
2023/07/09 09:00:54;;;;;;;0.10;0.10;;;31.70;99.90;33.80;101726.00;;;;6255825;22;20156;-71
2023/07/09 09:03:46;;;;;;;0.22;0.22;;;31.50;99.90;34.60;101756.00;;;;6281573;22;20180;-70
2023/07/09 09:06:20;;;;;;;1.60;1.60;;;30.90;99.90;35.10;101762.00;;;;6255479;22;20160;-71
2023/07/09 09:09:01;;;;;;;7.32;1.10;;;31.50;99.90;36.00;101754.00;;;;6280929;22;20599;-71
2023/07/09 09:11:39;;;;;;;0.20;0.20;;;32.00;99.90;35.80;101771.00;;;;6281286;22;20477;-71
2023/07/09 09:14:21;;;;;;;0.10;0.10;;;32.20;99.90;37.20;101747.00;;;;6281424;22;20160;-71
2023/07/09 09:16:49;;;;;;;0.10;0.10;;;32.60;99.90;38.60;101713.00;;;;6307398;22;20593;-71
2023/07/09 09:19:47;;;;;;;0.10;0.10;;;33.90;99.90;38.90;101702.00;;;;6308396;22;20217;-71
2023/07/09 09:22:21;;;;;;;0.70;0.70;;;34.80;99.90;38.50;101713.00;;;;6269601;22;20616;-71
2023/07/09 09:25:11;;;;;;;0.10;0.10;;;35.10;99.90;40.10;101705.00;;;;6280773;22;20172;-71
2023/07/09 09:27:38;;;;;;;0.10;0.10;;;35.50;99.90;38.70;101734.00;;;;6307736;22;20145;-71
2023/07/09 09:30:10;;;;;;;0.60;0.60;;;35.40;99.90;39.30;101727.00;;;;6281252;22;20141;-71
2023/07/09 09:32:54;;;;;;;0.32;0.32;;;35.60;99.90;38.50;101726.00;;;;6280742;22;20147;-71
2023/07/09 09:35:35;;;;;;;0.10;0.10;;;35.10;99.90;38.50;101708.00;;;;6281020;22;20207;-71
2023/07/09 09:38:02;;;;;;;1.65;1.40;;;34.70;99.90;40.20;101700.00;;;;6255186;22;20201;-71
2023/07/09 09:40:36;;;;;;;0.10;0.10;;;35.60;99.90;37.50;101745.00;;;;6255224;22;20208;-70
2023/07/09 09:43:19;;;;;;;1.45;1.27;;;34.90;99.90;37.30;101737.00;;;;6280698;22;20190;-71
2023/07/09 09:45:49;;;;;;;2.58;0.60;;;34.20;99.90;36.90;101757.00;;;;6255317;22;20167;-71
2023/07/09 09:48:29;;;;;;;2.72;2.53;;;33.60;99.90;37.10;101771.00;;;;6280150;22;20471;-71
2023/07/09 09:51:00;;;;;;;0.32;0.32;;;33.70;99.90;37.40;101769.00;;;;6280601;22;20586;-71
2023/07/09 09:53:29;;;;;;;0.38;0.38;;;33.80;99.90;38.70;101783.00;;;;6281425;22;20476;-71
2023/07/09 09:55:56;;;;;;;0.60;0.60;;;34.20;99.90;38.00;101790.00;;;;6280339;22;20227;-71
2023/07/09 09:58:34;;;;;;;0.10;0.10;;;34.10;99.90;37.60;101801.00;;;;6280483;22;20638;-71
2023/07/09 10:01:31;;;;;;;0.40;0.40;;;33.70;99.90;37.40;101818.00;;;;6255197;22;20171;-71
2023/07/09 10:04:03;;;;;;;0.25;0.25;;;33.20;99.90;37.10;101817.00;;;;6269547;22;20245;-71
2023/07/09 10:06:41;;;;;;;0.95;0.95;;;33.20;99.90;36.60;101834.00;;;;6280280;22;20156;-71
2023/07/09 10:09:15;;;;;;;0.20;0.20;;;32.70;99.90;37.00;101831.00;;;;6254561;22;20175;-71
2023/07/09 10:11:59;;;;;;;1.20;1.10;;;32.80;99.90;36.00;101845.00;;;;6280553;22;20163;-71
2023/07/09 10:14:52;;;;;;;0.95;0.80;;;32.50;99.90;36.30;101834.00;;;;6280041;22;20180;-71
2023/07/09 10:17:55;;;;;;;0.68;0.68;;;32.30;99.90;34.10;101891.00;;;;6307321;22;20136;-71
2023/07/09 10:33:56;;;;;;;0.20;0.20;;;30.10;99.90;35.00;101847.00;;;;5070562;28;20590;-70
2023/07/09 10:36:47;;;;;;;0.10;0.10;;;30.70;99.90;36.00;101801.00;;;;5040695;28;20189;-71
2023/07/09 10:39:26;;;;;;;0.20;0.20;;;31.50;99.90;36.70;101837.00;;;;5042643;28;20652;-71
2023/07/09 10:41:59;;;;;;;2.45;1.52;;;32.30;99.90;36.50;101836.00;;;;5032505;28;20640;-71
2023/07/09 10:44:35;;;;;;;3.83;1.33;;;32.40;99.90;36.40;101825.00;;;;5032782;28;20182;-71
2023/07/09 10:47:34;;;;;;;0.60;0.60;;;32.40;99.90;36.40;101822.00;;;;5049031;28;20564;-71
2023/07/09 10:50:04;;;;;;;0.25;0.25;;;32.20;99.90;36.00;101843.00;;;;5029280;28;20559;-70
2023/07/09 10:52:37;;;;;;;0.38;0.38;;;31.90;99.90;34.90;101847.00;;;;5040536;28;20214;-71
2023/07/09 10:55:17;;;;;;;3.20;1.38;;;31.40;99.90;35.20;101859.00;;;;5048859;28;20193;-70
2023/07/09 10:57:52;;;;;;;0.10;0.10;;;31.30;99.90;35.10;101864.00;;;;5050421;28;20174;-71
2023/07/09 11:00:37;;;;;;;0.22;0.22;;;30.90;99.90;34.70;101876.00;;;;5021899;28;20194;-70
2023/07/09 11:03:23;;;;;;;0.22;0.20;;;30.70;99.90;35.10;101873.00;;;;5049124;28;20194;-70
2023/07/09 11:05:51;;;;;;;1.33;1.00;;;30.70;99.90;34.30;101878.00;;;;5050337;28;20190;-70
2023/07/09 11:08:39;;;;;;;0.25;0.25;;;30.60;99.90;34.00;101877.00;;;;5048796;28;20182;-70
2023/07/09 11:11:34;;;;;;;0.10;0.10;;;30.20;99.90;34.90;101835.00;;;;5048523;28;20190;-71
2023/07/09 11:14:23;;;;;;;0.10;0.10;;;30.50;99.90;35.00;101852.00;;;;5044993;28;20178;-70
2023/07/09 11:16:55;;;;;;;0.25;0.25;;;30.80;99.90;34.10;101882.00;;;;5049510;28;20699;-70
2023/07/09 11:19:21;;;;;;;0.20;0.20;;;30.70;99.90;35.10;101882.00;;;;5032300;28;20178;-70
2023/07/09 11:22:14;;;;;;;1.85;0.63;;;31.00;99.90;35.70;101870.00;;;;5048784;28;20264;-70
2023/07/09 11:25:04;;;;;;;0.10;0.10;;;31.60;99.90;36.50;101841.00;;;;5048838;28;20189;-71
2023/07/09 11:27:33;;;;;;;1.38;0.45;;;32.30;99.90;37.20;101840.00;;;;5046213;28;20229;-71
2023/07/09 11:30:43;;;;;;;0.63;0.50;;;33.00;99.90;36.90;101839.00;;;;5048424;28;20221;-71
2023/07/09 11:33:26;;;;;;;0.08;0.08;;;33.10;99.90;38.40;101819.00;;;;5061336;28;20868;-69
2023/07/09 11:36:12;;;;;;;0.10;0.10;;;34.00;99.90;39.10;101823.00;;;;5031983;28;20265;-69
2023/07/09 11:38:47;;;;;;;0.80;0.80;;;34.60;99.90;38.40;101832.00;;;;5039663;28;20179;-69
2023/07/09 11:48:52;;;;;;;0.30;0.30;;;33.10;99.90;35.40;101903.00;;;;5026094;28;20202;-70
2023/07/09 11:51:34;;;;;;;2.00;1.75;;;31.90;99.90;34.40;101909.00;;;;5057626;28;20241;-71
2023/07/09 11:54:36;;;;;;;1.85;0.52;;;31.30;99.90;34.70;101906.00;;;;5034644;28;20229;-70
2023/07/09 11:57:15;;;;;;;0.13;0.13;;;30.70;99.90;34.50;101916.00;;;;5034769;28;20274;-70
2023/07/09 11:59:42;;;;;;;1.55;0.63;;;30.60;99.90;33.80;101927.00;;;;5035702;28;20185;-70
2023/07/09 12:02:21;;;;;;;0.10;0.10;;;30.20;99.90;33.80;101920.00;;;;5034847;28;20306;-70
2023/07/09 12:04:52;;;;;;;0.10;0.10;;;29.90;99.90;33.60;101924.00;;;;5034288;28;20182;-70
2023/07/09 12:07:24;;;;;;;0.10;0.10;;;29.60;99.90;33.50;101917.00;;;;5027353;28;20191;-70
2023/07/09 12:09:51;;;;;;;0.10;0.10;;;29.50;99.90;33.20;101932.00;;;;5034613;28;20182;-70
2023/07/09 12:12:19;;;;;;;0.80;0.38;;;29.20;99.90;33.20;101949.00;;;;5034123;28;20224;-70
2023/07/09 12:14:45;;;;;;;0.43;0.43;;;29.10;99.90;32.30;101963.00;;;;5034581;28;20191;-70
2023/07/09 12:17:11;;;;;;;1.85;0.95;;;28.70;99.90;32.00;101960.00;;;;5017789;28;20186;-70
2023/07/09 12:19:39;;;;;;;0.73;0.73;;;28.50;99.90;31.20;101968.00;;;;5035159;28;20183;-70
2023/07/09 12:22:13;;;;;;;0.28;0.28;;;27.90;99.90;32.10;101949.00;;;;5035704;28;20189;-70
2023/07/09 12:24:43;;;;;;;0.20;0.20;;;28.00;99.90;32.20;101973.00;;;;5017612;28;20745;-70
2023/07/09 12:27:24;;;;;;;0.25;0.25;;;28.00;99.90;32.50;101962.00;;;;5017358;28;20182;-70
2023/07/09 12:29:55;;;;;;;0.10;0.10;;;28.10;99.90;32.40;101961.00;;;;5027714;28;20519;-70
2023/07/09 12:32:26;;;;;;;0.10;0.10;;;28.20;99.90;32.60;101959.00;;;;5050136;28;20264;-70
2023/07/09 12:34:55;;;;;;;0.10;0.10;;;28.40;99.90;32.70;101957.00;;;;5014673;28;20267;-70
2023/07/09 12:37:25;;;;;;;0.10;0.10;;;28.40;99.90;32.80;101968.00;;;;5033409;28;20274;-70
2023/07/09 12:40:07;;;;;;;0.10;0.10;;;28.40;99.90;32.20;102007.00;;;;5033849;28;20583;-70
2023/07/09 12:42:41;;;;;;;0.10;0.10;;;28.30;99.90;32.30;102014.00;;;;5033673;28;20191;-70
2023/07/09 12:45:18;;;;;;;0.35;0.35;;;28.00;99.90;31.00;102040.00;;;;5032225;28;20625;-70
2023/07/09 12:47:46;;;;;;;1.65;1.55;;;27.50;99.90;30.30;102067.00;;;;5017073;28;20279;-70
2023/07/09 12:50:29;;;;;;;1.48;1.38;;;27.00;99.90;29.20;102034.00;;;;5033731;28;20241;-70
2023/07/09 12:52:57;;;;;;;0.30;0.30;;;26.10;99.90;29.30;101990.00;;;;5027610;28;20203;-70
2023/07/09 12:55:26;;;;;;;0.68;0.40;;;26.00;99.90;27.30;101997.00;;;;5031295;28;20186;-70
2023/07/09 12:58:00;;;;;;;0.13;0.13;;;25.20;99.90;27.60;101970.00;;;;5015651;28;20201;-70
2023/07/09 13:00:32;;;;;;;0.88;0.88;;;25.00;99.90;27.60;101974.00;;;;5043494;28;20598;-70
2023/07/09 13:02:59;;;;;;;0.10;0.10;;;24.80;99.90;28.20;101927.00;;;;5016742;28;20605;-71
2023/07/09 13:05:27;;;;;;;0.20;0.20;;;24.80;99.90;28.70;101931.00;;;;5033354;28;20190;-71
2023/07/09 13:08:01;;;;;;;0.10;0.10;;;24.90;99.90;28.10;101926.00;;;;5033388;28;20604;-71
2023/07/09 13:10:30;;;;;;;0.38;0.38;;;24.80;99.90;29.10;101917.00;;;;5026796;28;20202;-71
2023/07/09 13:13:02;;;;;;;1.35;1.35;;;25.00;99.90;29.60;101881.00;;;;5033001;28;20203;-71
2023/07/09 13:15:39;;;;;;;0.45;0.45;;;25.40;99.90;29.90;101855.00;;;;5033566;28;20186;-71
2023/07/09 13:18:11;;;;;;;0.20;0.20;;;25.70;99.90;29.70;101870.00;;;;5033037;28;20174;-71
2023/07/09 13:20:46;;;;;;;0.40;0.40;;;25.80;99.90;29.60;101854.00;;;;5033033;28;20270;-71
2023/07/09 13:23:25;;;;;;;0.13;0.13;;;26.00;99.90;30.00;101845.00;;;;5024591;28;20209;-71
2023/07/09 13:25:52;;;;;;;0.65;0.65;;;26.10;99.90;29.50;101841.00;;;;5032667;28;20629;-71
2023/07/09 13:28:30;;;;;;;0.22;0.22;;;26.10;99.90;29.80;101823.00;;;;5033850;28;20190;-71
2023/07/09 13:31:10;;;;;;;1.73;1.65;;;26.10;99.90;28.90;101790.00;;;;5034377;28;20220;-71
2023/07/09 13:33:36;;;;;;;0.10;0.10;;;25.90;99.90;29.50;101787.00;;;;5016797;28;20191;-71
2023/07/09 13:36:03;;;;;;;1.08;1.08;;;25.70;99.90;29.70;101779.00;;;;5016084;28;20600;-71
2023/07/09 13:38:31;;;;;;;0.50;0.50;;;25.90;99.90;29.20;101727.00;;;;5032734;28;20289;-71
2023/07/09 13:41:01;;;;;;;2.28;1.00;;;25.90;99.90;27.30;101748.00;;;;5016056;28;20600;-71
2023/07/09 13:43:34;;;;;;;0.35;0.35;;;25.20;99.90;27.70;101747.00;;;;5032817;28;20179;-70
2023/07/09 13:46:03;;;;;;;0.73;0.73;;;24.90;99.90;27.00;101716.00;;;;5033213;28;20174;-71
2023/07/09 13:48:31;;;;;;;0.10;0.10;;;24.70;99.90;28.00;101730.00;;;;5016137;28;20182;-71
2023/07/09 13:51:15;;;;;;;0.65;0.65;;;24.70;99.90;28.20;101728.00;;;;5015825;28;20213;-71
2023/07/09 13:53:41;;;;;;;0.20;0.20;;;24.90;99.90;27.30;101695.00;;;;5015653;28;20201;-71
2023/07/09 13:56:07;;;;;;;0.85;0.32;;;24.70;99.90;27.80;101701.00;;;;5033620;28;20530;-71
2023/07/09 13:58:33;;;;;;;0.68;0.68;;;24.60;99.90;27.70;101668.00;;;;5032128;28;20187;-70
2023/07/09 14:01:12;;;;;;;0.28;0.28;;;24.60;99.90;28.60;101719.00;;;;5015881;28;20202;-71
2023/07/09 14:03:38;;;;;;;0.77;0.77;;;25.00;99.90;28.90;101745.00;;;;5031979;28;20217;-70
2023/07/09 14:06:09;;;;;;;0.32;0.32;;;25.40;99.90;27.70;101731.00;;;;5015456;28;20565;-70
2023/07/09 14:08:35;;;;;;;0.28;0.28;;;24.90;99.90;27.40;101708.00;;;;5021330;28;20195;-70
2023/07/09 14:11:01;;;;;;;0.10;0.10;;;24.70;99.90;28.80;101721.00;;;;5012406;28;20183;-71
2023/07/09 14:13:29;;;;;;;1.05;1.05;;;25.00;99.90;29.10;101726.00;;;;5027164;28;20280;-70
2023/07/09 14:15:55;;;;;;;0.28;0.20;;;25.40;99.90;29.30;101707.00;;;;5032038;28;20343;-70
2023/07/09 14:18:22;;;;;;;3.50;1.30;;;25.60;99.90;28.10;101684.00;;;;5015832;28;20175;-70
2023/07/09 14:20:50;;;;;;;7.30;1.52;;;25.40;99.90;27.50;101686.00;;;;5028610;28;20294;-70
2023/07/09 14:23:18;;;;;;;0.10;0.10;;;25.00;99.90;28.10;101675.00;;;;5048632;28;20224;-71
2023/07/09 14:25:44;;;;;;;0.38;0.28;;;25.00;99.90;28.70;101656.00;;;;5015364;28;20589;-71
2023/07/09 14:28:14;;;;;;;0.53;0.53;;;25.10;99.90;29.30;101682.00;;;;5032099;28;20419;-70
2023/07/09 14:30:43;;;;;;;1.98;0.63;;;25.60;99.90;28.30;101667.00;;;;5032026;28;20209;-70
2023/07/09 14:33:24;;;;;;;0.20;0.20;;;25.40;99.90;29.40;101683.00;;;;5031612;28;20557;-70
2023/07/09 14:35:50;;;;;;;0.30;0.30;;;25.60;99.90;29.70;101680.00;;;;5032937;28;20206;-70
2023/07/09 14:38:29;;;;;;;0.20;0.20;;;25.90;99.90;29.40;101688.00;;;;5031389;28;20198;-70
2023/07/09 14:40:58;;;;;;;1.75;0.75;;;26.00;99.90;29.40;101693.00;;;;5032094;28;20189;-70
2023/07/09 14:43:26;;;;;;;0.30;0.30;;;26.10;99.90;29.30;101687.00;;;;5015333;28;20198;-70
2023/07/09 14:45:57;;;;;;;0.63;0.63;;;26.00;99.90;29.60;101697.00;;;;5022428;28;20183;-70
2023/07/09 14:48:30;;;;;;;0.45;0.45;;;26.10;99.90;29.60;101705.00;;;;5030323;28;20187;-70
2023/07/09 14:50:59;;;;;;;0.22;0.22;;;26.10;99.90;28.70;101696.00;;;;5028508;28;20199;-70
2023/07/09 14:53:27;;;;;;;0.45;0.45;;;25.80;99.90;28.50;101680.00;;;;5047955;28;20207;-70
2023/07/09 14:55:54;;;;;;;0.50;0.50;;;25.70;99.90;28.50;101689.00;;;;5033810;28;20214;-70
2023/07/09 14:58:23;;;;;;;0.95;0.95;;;25.50;99.90;29.50;101699.00;;;;5058575;28;20689;-70
2023/07/09 15:00:51;;;;;;;3.67;3.38;;;25.90;99.90;28.60;101711.00;;;;5015170;28;20183;-70
2023/07/09 15:03:24;;;;;;;2.25;1.10;;;25.80;99.90;30.10;101724.00;;;;5015143;28;20198;-70
2023/07/09 15:05:50;;;;;;;1.10;0.93;;;26.20;99.90;30.00;101723.00;;;;5031230;28;20186;-70
2023/07/09 15:08:23;;;;;;;0.98;0.90;;;26.50;99.90;30.10;101730.00;;;;5031238;28;20201;-70
2023/07/09 15:10:52;;;;;;;1.55;1.05;;;26.50;99.90;30.10;101726.00;;;;5015438;28;20182;-70
2023/07/09 15:13:38;;;;;;;0.10;0.10;;;26.60;99.90;30.40;101736.00;;;;5031485;28;20545;-70
2023/07/09 15:16:05;;;;;;;0.10;0.10;;;26.60;99.90;30.60;101740.00;;;;5064456;28;20361;-70
2023/07/09 15:18:34;;;;;;;3.60;2.30;;;26.80;99.90;29.80;101735.00;;;;5032607;28;20179;-70
2023/07/09 15:21:04;;;;;;;0.55;0.28;;;26.50;99.90;29.60;101725.00;;;;5035073;28;20183;-70
2023/07/09 15:23:40;;;;;;;0.57;0.57;;;26.30;99.90;29.90;101697.00;;;;5035296;28;20214;-70
2023/07/09 15:26:15;;;;;;;0.40;0.40;;;26.30;99.90;29.70;101710.00;;;;5034825;28;20187;-70
2023/07/09 15:28:41;;;;;;;10.38;3.15;;;26.40;99.90;30.00;101750.00;;;;5035254;28;20187;-70
2023/07/09 15:31:11;;;;;;;0.10;0.10;;;26.40;99.90;30.40;101753.00;;;;5018510;28;20183;-70
2023/07/09 15:33:38;;;;;;;0.65;0.65;;;26.60;99.90;29.70;101760.00;;;;5032785;28;20190;-70
2023/07/09 15:36:10;;;;;;;0.75;0.50;;;26.50;99.90;28.30;101734.00;;;;5034946;28;20240;-70
2023/07/09 15:38:40;;;;;;;0.30;0.30;;;25.70;99.90;29.00;101737.00;;;;5034705;28;20194;-69
2023/07/09 15:41:16;;;;;;;0.10;0.10;;;25.60;99.90;29.60;101734.00;;;;5024468;28;20181;-70
2023/07/09 15:43:47;;;;;;;0.57;0.57;;;25.90;99.90;29.90;101707.00;;;;5034984;28;20663;-70
2023/07/09 15:46:18;;;;;;;0.95;0.95;;;26.10;99.90;29.60;101750.00;;;;5035742;28;20193;-70
2023/07/09 15:48:45;;;;;;;0.10;0.10;;;26.20;99.90;29.90;101755.00;;;;5035194;28;20202;-70
2023/07/09 15:51:11;;;;;;;0.20;0.20;;;26.20;99.90;30.40;101750.00;;;;5034854;28;20202;-70
2023/07/09 15:53:38;;;;;;;1.45;1.35;;;26.40;99.90;30.20;101765.00;;;;5034645;28;20222;-70
2023/07/09 15:56:23;;;;;;;0.75;0.52;;;26.60;99.90;30.20;101784.00;;;;5034708;28;20717;-70
2023/07/09 15:58:51;;;;;;;0.20;0.20;;;26.60;99.90;30.00;101776.00;;;;5023308;28;20175;-70
2023/07/09 16:01:17;;;;;;;1.85;1.17;;;26.40;99.90;29.60;101825.00;;;;5034704;28;20191;-70
2023/07/09 16:03:49;;;;;;;0.68;0.68;;;26.20;99.90;29.50;101840.00;;;;5018108;28;20236;-70
2023/07/09 16:06:16;;;;;;;1.70;1.10;;;25.90;99.90;29.00;101838.00;;;;5034158;28;20187;-70
2023/07/09 16:08:42;;;;;;;0.40;0.40;;;25.60;99.90;28.40;101849.00;;;;5034668;28;20222;-70
2023/07/09 16:11:18;;;;;;;0.15;0.15;;;25.40;99.90;28.20;101831.00;;;;5040065;28;20671;-70
2023/07/09 16:13:45;;;;;;;0.10;0.10;;;25.20;99.90;28.20;101825.00;;;;5032832;28;20178;-69
2023/07/09 16:16:16;;;;;;;0.30;0.30;;;24.90;99.90;29.00;101839.00;;;;5017855;28;20657;-70
2023/07/09 16:18:43;;;;;;;0.10;0.10;;;25.10;99.90;29.00;101827.00;;;;5033986;28;20580;-70
2023/07/09 16:21:24;;;;;;;0.57;0.57;;;25.20;99.90;28.90;101874.00;;;;5034279;28;20715;-70
2023/07/09 16:23:51;;;;;;;0.17;0.17;;;25.10;99.90;28.40;101862.00;;;;5035528;28;20182;-70
2023/07/09 16:26:17;;;;;;;0.63;0.63;;;24.90;99.90;28.50;101864.00;;;;5017410;28;20189;-70
2023/07/09 16:28:43;;;;;;;0.10;0.10;;;24.90;99.90;28.90;101834.00;;;;5014496;28;20274;-70
2023/07/09 16:31:20;;;;;;;0.30;0.30;;;25.00;99.90;28.70;101870.00;;;;5056962;28;20210;-70
2023/07/09 16:33:48;;;;;;;0.35;0.35;;;25.10;99.90;28.80;101875.00;;;;5034901;28;20183;-70
2023/07/09 16:36:25;;;;;;;0.10;0.10;;;25.10;99.90;28.50;101884.00;;;;5033362;28;20182;-70
2023/07/09 16:38:55;;;;;;;0.10;0.10;;;25.00;99.90;28.80;101887.00;;;;5030585;28;20640;-70
2023/07/09 16:41:21;;;;;;;0.98;0.38;;;25.00;99.90;28.70;101863.00;;;;5017565;28;20175;-70
2023/07/09 16:43:47;;;;;;;0.25;0.17;;;25.00;99.90;27.40;101902.00;;;;5033627;28;20541;-69
2023/07/09 16:46:27;;;;;;;0.40;0.40;;;24.60;99.90;27.20;101821.00;;;;5017000;28;20640;-69
2023/07/09 16:48:54;;;;;;;0.25;0.25;;;24.10;99.90;28.20;101870.00;;;;5034699;28;20183;-70
2023/07/09 16:51:20;;;;;;;0.70;0.70;;;24.40;99.90;28.20;101858.00;;;;5020499;28;20194;-69
2023/07/09 16:53:47;;;;;;;5.07;1.35;;;24.50;99.90;26.90;101871.00;;;;5033049;28;20179;-69
2023/07/09 16:56:14;;;;;;;0.17;0.17;;;24.30;99.90;26.60;101842.00;;;;5034490;28;20256;-69
2023/07/09 16:58:44;;;;;;;0.20;0.20;;;23.90;99.90;27.80;101856.00;;;;5033016;28;20194;-70
2023/07/09 17:01:12;;;;;;;0.30;0.30;;;24.20;99.90;28.40;101860.00;;;;5032908;28;20203;-70
2023/07/09 17:03:38;;;;;;;1.25;0.40;;;24.50;99.90;28.60;101870.00;;;;5033292;28;20183;-69
2023/07/09 17:06:24;;;;;;;0.30;0.30;;;24.70;99.90;28.10;101859.00;;;;5033118;28;20185;-69
2023/07/09 17:08:55;;;;;;;0.20;0.20;;;24.60;99.90;27.10;101838.00;;;;5013516;28;20314;-70
2023/07/09 17:11:31;;;;;;;0.10;0.10;;;24.30;99.90;27.50;101832.00;;;;5033953;28;20183;-70
2023/07/09 17:14:05;;;;;;;0.10;0.10;;;24.10;99.90;28.30;101855.00;;;;5030460;28;20302;-70
2023/07/09 17:16:38;;;;;;;0.10;0.10;;;24.50;99.90;28.00;101859.00;;;;5032571;28;20196;-70
2023/07/09 17:19:11;;;;;;;0.10;0.10;;;24.60;99.90;28.10;101858.00;;;;5032766;28;20179;-70
2023/07/09 17:21:39;;;;;;;0.10;0.10;;;24.60;99.90;28.10;101875.00;;;;5032748;28;20187;-71
2023/07/09 17:24:24;;;;;;;0.10;0.10;;;24.60;99.90;28.10;101855.00;;;;5023565;28;20266;-70
2023/07/09 17:27:05;;;;;;;0.10;0.10;;;24.50;99.90;29.00;101865.00;;;;5028111;28;20536;-71
2023/07/09 17:29:31;;;;;;;0.10;0.10;;;24.80;99.90;28.20;101871.00;;;;5032710;28;20601;-70
2023/07/09 17:31:57;;;;;;;0.30;0.30;;;24.70;99.90;28.50;101865.00;;;;5032234;28;20215;-71
2023/07/09 17:34:23;;;;;;;0.10;0.10;;;24.70;99.90;28.10;101872.00;;;;5032600;28;20604;-71
2023/07/09 17:36:49;;;;;;;0.65;0.63;;;24.60;99.90;27.80;101859.00;;;;5032638;28;20177;-70
2023/07/09 17:39:18;;;;;;;0.10;0.10;;;24.40;99.90;28.10;101838.00;;;;5012761;28;20650;-70
2023/07/09 17:41:48;;;;;;;0.10;0.10;;;24.40;99.90;27.90;101861.00;;;;5063217;28;20216;-70
2023/07/09 17:44:23;;;;;;;0.10;0.10;;;24.40;99.90;28.80;101833.00;;;;5032424;28;20269;-71
2023/07/09 17:46:52;;;;;;;0.10;0.10;;;24.50;99.90;27.10;101856.00;;;;5032158;28;20174;-71
2023/07/09 17:49:29;;;;;;;0.20;0.20;;;24.20;99.90;27.40;101823.00;;;;5032381;28;20177;-71
2023/07/09 17:51:55;;;;;;;0.20;0.20;;;24.10;99.90;27.60;101823.00;;;;5032178;28;20289;-70
2023/07/09 17:54:26;;;;;;;0.28;0.28;;;24.10;99.90;27.50;101869.00;;;;5032536;28;20285;-71
2023/07/09 17:56:55;;;;;;;1.00;0.63;;;24.10;99.90;27.20;101856.00;;;;5015794;28;20263;-70
2023/07/09 17:59:26;;;;;;;1.88;1.88;;;24.00;99.90;26.40;101804.00;;;;5032075;28;20249;-70
2023/07/09 18:02:08;;;;;;;1.00;0.98;;;23.70;99.90;26.60;101840.00;;;;5020444;28;20206;-70
2023/07/09 18:04:40;;;;;;;0.30;0.30;;;23.60;99.90;27.00;101821.00;;;;5032057;28;20198;-70
2023/07/09 18:07:35;;;;;;;0.68;0.68;;;23.60;99.90;27.60;101864.00;;;;5032535;28;20182;-71
2023/07/09 18:10:05;;;;;;;0.10;0.10;;;23.80;99.90;27.60;101851.00;;;;5041958;28;20191;-70
2023/07/09 18:12:41;;;;;;;0.20;0.20;;;23.90;99.90;26.50;101859.00;;;;5028811;28;20211;-72
2023/07/09 18:15:27;;;;;;;0.65;0.65;;;23.70;99.90;26.50;101857.00;;;;5032253;28;20182;-70
2023/07/09 18:17:56;;;;;;;0.17;0.17;;;23.40;99.90;27.10;101833.00;;;;5033192;28;20665;-71
2023/07/09 18:20:24;;;;;;;0.30;0.30;;;23.50;99.90;26.50;101834.00;;;;5032535;28;20175;-70
2023/07/09 18:23:10;;;;;;;0.17;0.17;;;23.40;99.90;26.40;101882.00;;;;5012498;28;20194;-70
2023/07/09 18:26:03;;;;;;;0.20;0.20;;;23.30;99.90;25.00;101857.00;;;;5027235;28;20596;-70
2023/07/09 18:28:35;;;;;;;0.80;0.80;;;22.90;99.90;25.50;101878.00;;;;5031877;28;20178;-70
2023/07/09 18:31:01;;;;;;;0.10;0.10;;;22.80;99.90;25.90;101886.00;;;;5031958;28;20182;-71
2023/07/09 18:33:33;;;;;;;0.20;0.20;;;22.80;99.90;26.70;101895.00;;;;5031865;28;20210;-71
2023/07/09 18:36:04;;;;;;;0.38;0.38;;;23.10;99.90;26.70;101882.00;;;;5031745;28;20588;-70
2023/07/09 18:38:33;;;;;;;0.20;0.20;;;23.20;99.90;26.20;101882.00;;;;5014697;28;20624;-71
2023/07/09 18:41:17;;;;;;;0.10;0.10;;;23.00;99.90;25.50;101874.00;;;;5015149;28;20191;-70
2023/07/09 18:43:45;;;;;;;0.88;0.20;;;22.90;99.90;25.10;101865.00;;;;5014541;28;20186;-70